• Join FlightAware (Why Join?)
  • Login
  • US Flag 
 
03:43PM EST


 

Airport Tracker/Info


-or-


 

Live Flight TrackerFlight Track Log ✈ N194TR ✈ 24-May-2013 ✈ KBCB - KHQU

Flight Track Log - Related Links

Times and Time Zones

All times are in EDT time to prevent confusion due to time zone crossing. See the N194TR flight status page for this flight to view local times or setup timezone preferences in your user account.

Time Position Orientation Groundspeed Altitude Reporting Facility
EDT Latitude Longitude Course Direction KTS MPH feet Rate Location/Type
09:18PM 37.1133 -80.4575 202° Southwest 215 247 7,500  Level Atlanta Center
09:20PM 36.9978 -80.5017 197° South 234 269 11,600 1,920 Climbing Atlanta Center
09:21PM 36.9442 -80.5197 195° South 234 269 13,400 1,800 Climbing Atlanta Center
09:22PM 36.8844 -80.5431 197° South 229 264 15,300 2,100 Climbing Atlanta Center
09:23PM 36.8913 -80.5794 202° Southwest  Level FlightAware Approximate
09:23PM 36.8289 -80.5714 202° Southwest 223 257 17,700  Level Atlanta Center
09:24PM 36.7800 -80.6100 212° Southwest 218 251 19,100 1,620 Climbing Atlanta Center
09:25PM 36.7225 -80.6486 208° Southwest 218 251 21,000 1,680 Climbing Atlanta Center
09:26PM 36.6650 -80.6822 205° Southwest 218 251 22,500 1,500 Climbing Atlanta Center
09:27PM 36.6056 -80.7183 206° Southwest 235 270 24,000 720 Climbing Atlanta Center
09:28PM 36.5467 -80.7750 218° Southwest 257 296 24,000 -60 Level Atlanta Center
09:29PM 36.4878 -80.8367 220° Southwest 276 318 23,900 -60 Descending Atlanta Center
09:30PM 36.4206 -80.8961 215° Southwest 294 338 23,900  Level Atlanta Center
09:31PM 36.3444 -80.9406 205° Southwest 299 344 23,900  Level Atlanta Center
09:32PM 36.2744 -80.9714 200° South 304 350 23,900  Level Atlanta Center
09:33PM 36.1936 -80.9978 195° South 304 350 23,900  Level Atlanta Center
09:34PM 36.1153 -81.0264 196° South 299 344 23,900  Level Atlanta Center
09:35PM 36.0411 -81.0650 203° Southwest 299 344 23,900  Level Atlanta Center
09:36PM 35.9753 -81.1111 210° Southwest 285 328 23,900  Level Atlanta Center
09:37PM 35.9142 -81.1644 215° Southwest 280 322 23,900  Level Atlanta Center
09:38PM 35.8506 -81.2156 213° Southwest 275 316 23,900  Level Atlanta Center
09:39PM 35.7828 -81.2614 209° Southwest 275 316 23,900  Level Atlanta Center
09:40PM 35.7128 -81.3022 205° Southwest 281 323 23,900  Level Atlanta Center
09:41PM 35.6364 -81.3353 199° South 286 329 23,900  Level Atlanta Center
09:42PM 35.5597 -81.3686 199° South 291 335 23,900  Level Atlanta Center
09:43PM 35.4856 -81.4014 200° South 286 329 23,900  Level Atlanta Center
09:44PM 35.4175 -81.4419 206° Southwest 278 320 23,900  Level Atlanta Center
09:45PM 35.3517 -81.4872 209° Southwest 273 314 23,900  Level Atlanta Center
09:46PM 35.2797 -81.5353 209° Southwest 273 314 23,900  Level Atlanta Center
09:47PM 35.2139 -81.5806 209° Southwest 273 314 23,900  Level Atlanta Center
09:48PM 35.1458 -81.6206 206° Southwest 273 314 23,900  Level Atlanta Center
09:49PM 35.0733 -81.6558 202° Southwest 279 321 23,900 -180 Level Atlanta Center
09:50PM 35.0011 -81.6908 202° Southwest 279 321 23,600 -6,480 Descending Atlanta Center
09:51PM 34.9267 -81.7358 206° Southwest 284 327 11,000 -300 Descending Atlanta Center
09:52PM 34.8564 -81.7733 204° Southwest 289 333 23,000 6,000 Climbing Atlanta Center
09:53PM 34.7883 -81.8131 206° Southwest 282 325 23,000  Level Atlanta Center
09:54PM 34.7181 -81.8503 204° Southwest 273 314 23,000  Level Atlanta Center
09:55PM 34.6603 -81.8897 209° Southwest 273 314 23,000  Level Atlanta Center
09:56PM 34.5900 -81.9244 202° Southwest 278 320 23,000  Level Atlanta Center
09:57PM 34.5239 -81.9614 205° Southwest 273 314 23,000  Level Atlanta Center
09:58PM 34.4556 -82.0033 207° Southwest 273 314 23,000  Level Atlanta Center
09:59PM 34.3875 -82.0403 204° Southwest 273 314 23,000  Level Atlanta Center
10:00PM 34.3192 -82.0794 205° Southwest 273 314 23,000  Level Atlanta Center
10:01PM 34.2508 -82.1136 202° Southwest 273 314 23,000  Level Atlanta Center
10:02PM 34.1825 -82.1531 206° Southwest 273 314 23,000  Level Atlanta Center
10:03PM 34.1164 -82.1894 205° Southwest 273 314 23,000  Level Atlanta Center
10:04PM 34.0500 -82.2261 205° Southwest 267 307 23,000  Level Atlanta Center
10:05PM 33.9839 -82.2650 206° Southwest 267 307 23,000 -6,000 Level Atlanta Center
10:06PM 33.9156 -82.3017 204° Southwest 273 314 11,000 -6,000 Descending Atlanta Center
10:07PM 33.8328 -82.3533 207° Southwest 293 337 11,000  Level Atlanta Center
10:08PM 33.7542 -82.3972 205° Southwest 307 353 11,000  Level Atlanta Center
10:09PM 33.6878 -82.4411 209° Southwest 292 336 11,000  Level Atlanta Center
10:10PM 33.6361 -82.4844 215° Southwest 256 295 11,000  Level Atlanta Center
10:11PM 33.5844 -82.5203 210° Southwest 220 253 11,000  Level Atlanta Center
10:12PM 33.5328 -82.5586 212° Southwest 220 253 11,000  Level Atlanta Center
10:13PM 33.4811 -82.5967 212° Southwest 220 253 11,000  Level Atlanta Center
10:15PM 33.5167 -82.5167 48° Northeast  Level FlightAware Approximate
10:22PM 33.5297 -82.5170 48° Northeast  Level Estimated
10:23PM 33.5297 -82.5170 48° Northeast  Level Estimated
10:24PM 33.5297 -82.5170 48° Northeast  Level Estimated
10:25PM 33.5297 -82.5170 48° Northeast  Level Estimated
10:26PM 33.5297 -82.5170 48° Northeast  Level Estimated
10:27PM 33.5297 -82.5170 48° Northeast  Level Estimated
10:28PM 33.5297 -82.5170 48° Northeast  Level Estimated
10:29PM 33.5297 -82.5170 48° Northeast  Level Estimated
10:30PM 33.5297 -82.5170 48° Northeast  Level Estimated